Time;durP1;ratioP1;P1;durP2;ratioP2;P2;SDS_P1;SDS_P2;PMS_P1;PMS_P2;Temp;Humidity;BMP_temperature;BMP_pressure;BME280_temperature;BME280_humidity;BME280_pressure;Samples;Min_cycle;Max_cycle;Signal;HPM_P1;HPM_P2
2021/12/06 00:01:01;;;;;;;56.10;31.17;;;;;;;;;;6154344;23;20475;-80
2021/12/06 00:03:31;;;;;;;50.03;29.08;;;;;;;;;;6153833;23;20021;-81
2021/12/06 00:05:57;;;;;;;48.13;29.58;;;;;;;;;;6153499;23;20359;-80
2021/12/06 00:08:24;;;;;;;52.58;32.35;;;;;;;;;;6180372;23;20339;-81
2021/12/06 00:10:51;;;;;;;47.80;28.17;;;;;;;;;;6152849;23;20099;-80
2021/12/06 00:13:20;;;;;;;48.53;27.95;;;;;;;;;;6153514;23;20013;-81
2021/12/06 00:15:49;;;;;;;49.60;29.52;;;;;;;;;;6153524;23;20043;-80
2021/12/06 00:18:15;;;;;;;47.40;28.25;;;;;;;;;;6153313;23;20021;-81
2021/12/06 00:20:41;;;;;;;48.95;28.30;;;;;;;;;;6128328;23;20021;-81
2021/12/06 00:23:07;;;;;;;53.13;29.15;;;;;;;;;;6129051;23;20024;-81
2021/12/06 00:25:35;;;;;;;51.10;28.98;;;;;;;;;;6154031;23;20463;-81
2021/12/06 00:28:01;;;;;;;51.42;29.63;;;;;;;;;;6153301;23;20454;-81
2021/12/06 00:30:27;;;;;;;52.28;30.65;;;;;;;;;;6152829;23;20139;-81
2021/12/06 00:32:53;;;;;;;55.10;31.40;;;;;;;;;;6153251;23;20028;-80
2021/12/06 00:35:22;;;;;;;50.42;29.55;;;;;;;;;;6155467;23;20013;-81
2021/12/06 00:38:00;;;;;;;57.55;31.13;;;;;;;;;;6154896;23;20096;-81
2021/12/06 00:40:29;;;;;;;61.17;32.42;;;;;;;;;;6152522;23;20027;-81
2021/12/06 00:42:55;;;;;;;60.60;32.38;;;;;;;;;;6153424;23;20442;-81
2021/12/06 00:45:21;;;;;;;64.13;33.28;;;;;;;;;;6128750;23;20087;-80
2021/12/06 00:47:47;;;;;;;55.63;32.28;;;;;;;;;;6153482;23;20088;-80
2021/12/06 00:50:15;;;;;;;59.38;32.33;;;;;;;;;;6153252;23;20013;-80
2021/12/06 00:52:41;;;;;;;56.30;31.80;;;;;;;;;;6153545;23;20087;-80
2021/12/06 00:55:09;;;;;;;54.20;31.05;;;;;;;;;;6180052;23;20348;-81
2021/12/06 00:57:35;;;;;;;53.13;30.10;;;;;;;;;;6153212;23;20048;-80
2021/12/06 01:00:02;;;;;;;56.80;30.70;;;;;;;;;;6128110;23;20024;-81
2021/12/06 01:02:28;;;;;;;59.85;32.13;;;;;;;;;;6128161;23;20020;-81
2021/12/06 01:04:54;;;;;;;54.40;31.13;;;;;;;;;;6128038;23;20336;-81
2021/12/06 01:07:20;;;;;;;61.95;34.10;;;;;;;;;;6128468;23;20084;-80
2021/12/06 01:09:46;;;;;;;64.13;33.28;;;;;;;;;;6152265;23;20009;-80
2021/12/06 01:12:13;;;;;;;54.20;32.47;;;;;;;;;;6179441;23;20035;-81
2021/12/06 01:14:39;;;;;;;57.30;31.70;;;;;;;;;;6128552;23;20017;-80
2021/12/06 01:17:06;;;;;;;65.03;34.13;;;;;;;;;;6179444;23;20013;-81
2021/12/06 01:19:32;;;;;;;56.25;30.10;;;;;;;;;;6179408;23;20051;-80
2021/12/06 01:22:15;;;;;;;58.85;32.38;;;;;;;;;;6152811;23;20009;-81
2021/12/06 01:24:48;;;;;;;60.03;32.13;;;;;;;;;;6152999;23;20028;-81
2021/12/06 01:30:19;;;;;;;53.47;31.33;;;;;;;;;;6152549;23;20257;-81
2021/12/06 01:40:44;;;;;;;73.13;36.65;;;;;;;;;;6152445;23;20021;-80
2021/12/06 01:43:10;;;;;;;70.95;37.72;;;;;;;;;;6153023;23;20463;-80
2021/12/06 01:45:36;;;;;;;82.13;37.50;;;;;;;;;;6128178;23;20017;-81
2021/12/06 01:48:02;;;;;;;76.57;38.80;;;;;;;;;;6128046;23;20013;-81
2021/12/06 01:50:28;;;;;;;75.78;38.53;;;;;;;;;;6151748;23;20520;-81
2021/12/06 01:53:01;;;;;;;62.72;33.63;;;;;;;;;;6152190;23;20017;-81
2021/12/06 01:55:30;;;;;;;66.93;36.40;;;;;;;;;;6152730;23;20096;-81
2021/12/06 01:57:57;;;;;;;76.55;35.67;;;;;;;;;;6152529;23;20020;-81
2021/12/06 02:00:25;;;;;;;69.72;36.65;;;;;;;;;;6127374;23;20027;-81
2021/12/06 02:02:51;;;;;;;64.60;34.72;;;;;;;;;;6128156;23;20115;-80
2021/12/06 02:05:17;;;;;;;58.90;33.45;;;;;;;;;;6152777;23;20017;-81
2021/12/06 02:07:43;;;;;;;68.32;36.38;;;;;;;;;;6127780;23;20454;-81
2021/12/06 02:10:10;;;;;;;65.18;34.65;;;;;;;;;;6152183;23;20013;-81
2021/12/06 02:12:36;;;;;;;68.78;35.45;;;;;;;;;;6152749;23;20020;-81
2021/12/06 02:15:07;;;;;;;62.13;34.00;;;;;;;;;;6128089;23;20071;-80
2021/12/06 02:17:41;;;;;;;61.75;34.25;;;;;;;;;;6153973;23;20013;-81
2021/12/06 02:20:08;;;;;;;67.38;36.08;;;;;;;;;;6180650;23;20024;-81
2021/12/06 02:22:35;;;;;;;62.28;34.03;;;;;;;;;;6154265;23;20071;-80
2021/12/06 02:25:02;;;;;;;64.40;35.03;;;;;;;;;;6154143;23;20044;-81
2021/12/06 02:27:30;;;;;;;65.70;34.85;;;;;;;;;;6129871;23;20013;-81
2021/12/06 02:29:57;;;;;;;65.07;33.58;;;;;;;;;;6179955;23;20092;-80
2021/12/06 02:32:23;;;;;;;66.95;34.97;;;;;;;;;;6154433;23;20071;-81
2021/12/06 02:34:52;;;;;;;64.35;33.90;;;;;;;;;;6129843;23;20063;-81
2021/12/06 02:37:19;;;;;;;67.03;35.22;;;;;;;;;;6181047;23;20493;-81
2021/12/06 02:39:46;;;;;;;59.83;33.75;;;;;;;;;;6129297;23;20554;-81
2021/12/06 02:42:14;;;;;;;65.80;33.80;;;;;;;;;;6154186;23;20049;-80
2021/12/06 02:44:41;;;;;;;65.55;34.97;;;;;;;;;;6154294;23;20039;-80
2021/12/06 02:47:07;;;;;;;61.78;33.60;;;;;;;;;;6154018;23;20009;-81
2021/12/06 02:49:33;;;;;;;67.90;36.28;;;;;;;;;;6129226;23;20084;-81
2021/12/06 02:51:59;;;;;;;64.95;35.72;;;;;;;;;;6154034;23;20016;-80
2021/12/06 02:54:26;;;;;;;65.00;33.35;;;;;;;;;;6154338;23;20513;-80
2021/12/06 02:57:17;;;;;;;68.10;36.85;;;;;;;;;;6154162;23;20009;-80
2021/12/06 02:59:44;;;;;;;66.65;36.70;;;;;;;;;;6179671;23;20013;-80
2021/12/06 03:02:11;;;;;;;68.25;36.78;;;;;;;;;;6154521;23;20020;-80
2021/12/06 03:04:38;;;;;;;65.97;34.25;;;;;;;;;;6153777;23;20028;-80
2021/12/06 03:07:04;;;;;;;68.97;36.47;;;;;;;;;;6129778;23;20059;-81
2021/12/06 03:09:37;;;;;;;68.15;36.67;;;;;;;;;;6153600;23;20044;-80
2021/12/06 03:12:13;;;;;;;65.07;34.97;;;;;;;;;;6128260;23;20013;-81
2021/12/06 03:14:43;;;;;;;64.88;34.72;;;;;;;;;;6129616;23;20092;-81
2021/12/06 03:17:11;;;;;;;60.10;33.20;;;;;;;;;;6154072;23;20469;-80
2021/12/06 03:19:37;;;;;;;66.80;37.05;;;;;;;;;;6153494;23;20009;-81
2021/12/06 03:22:04;;;;;;;67.20;35.72;;;;;;;;;;6129309;23;20020;-80
2021/12/06 03:24:30;;;;;;;65.15;34.42;;;;;;;;;;6153952;23;20013;-81
2021/12/06 03:26:56;;;;;;;62.10;34.47;;;;;;;;;;6153957;23;20017;-80
2021/12/06 03:29:23;;;;;;;58.10;32.92;;;;;;;;;;6153434;23;20351;-81
2021/12/06 03:31:50;;;;;;;63.83;34.58;;;;;;;;;;6153250;23;20100;-81
2021/12/06 03:34:16;;;;;;;64.30;34.20;;;;;;;;;;6154013;23;20020;-81
2021/12/06 03:36:43;;;;;;;70.07;37.03;;;;;;;;;;6129130;23;20045;-81
2021/12/06 03:39:20;;;;;;;63.63;35.08;;;;;;;;;;6129316;23;20013;-81
2021/12/06 03:41:46;;;;;;;61.72;33.53;;;;;;;;;;6179988;23;20409;-81
2021/12/06 03:44:12;;;;;;;60.40;33.08;;;;;;;;;;6153695;23;20013;-81
2021/12/06 03:46:40;;;;;;;68.72;36.67;;;;;;;;;;6153936;23;20013;-81
2021/12/06 03:49:16;;;;;;;75.25;36.65;;;;;;;;;;6180215;23;20012;-81
2021/12/06 03:51:43;;;;;;;70.43;35.63;;;;;;;;;;6128852;23;20064;-81
2021/12/06 03:54:10;;;;;;;65.68;34.85;;;;;;;;;;6154381;23;20379;-81
2021/12/06 03:56:39;;;;;;;66.68;34.05;;;;;;;;;;6153815;23;20017;-81
2021/12/06 03:59:05;;;;;;;71.10;36.90;;;;;;;;;;6180666;23;20024;-81
2021/12/06 04:01:32;;;;;;;69.90;34.28;;;;;;;;;;6152975;23;20020;-81
2021/12/06 04:03:58;;;;;;;68.00;37.10;;;;;;;;;;6153541;23;20024;-81
2021/12/06 04:06:24;;;;;;;74.70;36.92;;;;;;;;;;6153329;23;20025;-81
2021/12/06 04:08:50;;;;;;;66.43;35.35;;;;;;;;;;6129130;23;20489;-81
2021/12/06 04:11:16;;;;;;;65.45;33.35;;;;;;;;;;6128526;23;20470;-81
2021/12/06 04:13:43;;;;;;;69.80;35.00;;;;;;;;;;6153393;23;20083;-81
2021/12/06 04:16:09;;;;;;;69.25;33.13;;;;;;;;;;6153839;23;20076;-81
2021/12/06 04:18:35;;;;;;;62.92;33.50;;;;;;;;;;6128766;23;20036;-81
2021/12/06 04:21:01;;;;;;;74.93;35.33;;;;;;;;;;6128240;23;20514;-81
2021/12/06 04:23:27;;;;;;;67.72;35.92;;;;;;;;;;6128263;23;20072;-81
2021/12/06 04:25:53;;;;;;;74.00;36.63;;;;;;;;;;6153177;23;20017;-80
2021/12/06 04:28:20;;;;;;;66.85;34.67;;;;;;;;;;6153278;23;20020;-80
2021/12/06 04:30:46;;;;;;;63.53;33.75;;;;;;;;;;6152619;23;20350;-81
2021/12/06 04:33:13;;;;;;;67.47;36.05;;;;;;;;;;6153421;23;20423;-80
2021/12/06 04:35:39;;;;;;;66.35;34.42;;;;;;;;;;6153198;23;20044;-80
2021/12/06 04:38:06;;;;;;;62.85;34.05;;;;;;;;;;6153105;23;20016;-80
2021/12/06 04:40:32;;;;;;;64.05;33.97;;;;;;;;;;6127500;23;20020;-81
2021/12/06 04:42:58;;;;;;;73.40;34.65;;;;;;;;;;6179488;23;20013;-81
2021/12/06 04:45:24;;;;;;;61.03;33.65;;;;;;;;;;6179853;23;20104;-81
2021/12/06 04:47:50;;;;;;;70.82;36.08;;;;;;;;;;6128676;23;20009;-80
2021/12/06 04:50:17;;;;;;;68.05;34.30;;;;;;;;;;6152963;23;20342;-80
2021/12/06 04:52:43;;;;;;;70.75;34.67;;;;;;;;;;6179236;23;20045;-80
2021/12/06 04:55:19;;;;;;;80.35;38.72;;;;;;;;;;6153006;23;20092;-80
2021/12/06 04:57:46;;;;;;;66.38;33.28;;;;;;;;;;6128448;23;20035;-80
2021/12/06 05:00:21;;;;;;;69.82;34.92;;;;;;;;;;6152420;23;20395;-80
2021/12/06 05:02:47;;;;;;;74.22;36.42;;;;;;;;;;6179285;23;20013;-80
2021/12/06 05:05:18;;;;;;;70.47;33.92;;;;;;;;;;6152874;23;20088;-81
2021/12/06 05:07:46;;;;;;;75.15;36.95;;;;;;;;;;6153034;23;20013;-80
2021/12/06 05:10:14;;;;;;;75.22;37.47;;;;;;;;;;6152425;23;20013;-81
2021/12/06 05:12:41;;;;;;;78.00;36.40;;;;;;;;;;6153134;23;20375;-80
2021/12/06 05:15:07;;;;;;;74.13;35.38;;;;;;;;;;6152904;23;20021;-81
2021/12/06 05:17:33;;;;;;;68.22;32.92;;;;;;;;;;6153235;23;20067;-81
2021/12/06 05:20:00;;;;;;;69.13;35.55;;;;;;;;;;6128008;23;20100;-81
2021/12/06 05:22:26;;;;;;;72.75;35.38;;;;;;;;;;6126983;23;20722;-80
2021/12/06 05:24:53;;;;;;;69.00;33.92;;;;;;;;;;6127147;23;20024;-81
2021/12/06 05:27:27;;;;;;;74.07;35.17;;;;;;;;;;6152639;23;20495;-81
2021/12/06 05:29:57;;;;;;;72.97;35.15;;;;;;;;;;6153200;23;20458;-81
2021/12/06 05:32:29;;;;;;;71.28;34.97;;;;;;;;;;6153010;23;20013;-82
2021/12/06 05:35:02;;;;;;;71.05;34.75;;;;;;;;;;6179407;23;20020;-82
2021/12/06 05:37:28;;;;;;;122.40;73.50;;;;;;;;;;6152524;23;20017;-81
2021/12/06 05:39:55;;;;;;;84.47;46.22;;;;;;;;;;6152632;23;20024;-81
2021/12/06 05:42:21;;;;;;;94.90;54.47;;;;;;;;;;6127940;23;20129;-82
2021/12/06 05:44:48;;;;;;;65.68;34.80;;;;;;;;;;6152016;23;20327;-82
2021/12/06 05:47:14;;;;;;;65.55;34.78;;;;;;;;;;6128555;23;20470;-82
2021/12/06 05:49:40;;;;;;;75.22;35.40;;;;;;;;;;6126839;23;20068;-82
2021/12/06 05:52:06;;;;;;;114.18;66.07;;;;;;;;;;6152795;23;20382;-82
2021/12/06 05:54:32;;;;;;;99.78;49.65;;;;;;;;;;6129421;23;20033;-81
2021/12/06 05:56:59;;;;;;;100.18;56.90;;;;;;;;;;6154328;23;20096;-82
2021/12/06 05:59:25;;;;;;;85.57;46.00;;;;;;;;;;6129458;23;20104;-82
2021/12/06 06:01:53;;;;;;;81.68;41.05;;;;;;;;;;6152824;23;20152;-81
2021/12/06 06:04:19;;;;;;;77.10;36.72;;;;;;;;;;6154366;23;20035;-82
2021/12/06 06:06:46;;;;;;;90.35;45.03;;;;;;;;;;6129803;23;20071;-81
2021/12/06 06:09:12;;;;;;;63.65;33.03;;;;;;;;;;6130124;23;20346;-81
2021/12/06 06:11:38;;;;;;;77.22;36.72;;;;;;;;;;6129314;23;20093;-82
2021/12/06 06:14:04;;;;;;;77.68;36.88;;;;;;;;;;6154550;23;20020;-82
2021/12/06 06:16:36;;;;;;;72.78;34.83;;;;;;;;;;6154630;23;20079;-82
2021/12/06 06:19:02;;;;;;;79.53;37.70;;;;;;;;;;6154625;23;20049;-81
2021/12/06 06:21:28;;;;;;;80.18;36.10;;;;;;;;;;6153887;23;20458;-81
2021/12/06 06:23:54;;;;;;;81.10;38.40;;;;;;;;;;6154391;23;20021;-82
2021/12/06 06:26:20;;;;;;;77.20;36.90;;;;;;;;;;6129757;23;20013;-82
2021/12/06 06:28:46;;;;;;;67.53;32.53;;;;;;;;;;6154471;23;20017;-82
2021/12/06 06:31:12;;;;;;;74.50;36.33;;;;;;;;;;6129233;23;20019;-81
2021/12/06 06:33:38;;;;;;;71.07;33.42;;;;;;;;;;6181188;23;20378;-82
2021/12/06 06:36:05;;;;;;;67.50;34.22;;;;;;;;;;6129919;23;20028;-81
2021/12/06 06:38:30;;;;;;;75.53;35.53;;;;;;;;;;6154572;23;20044;-81
2021/12/06 06:40:58;;;;;;;81.57;34.97;;;;;;;;;;6153806;23;20013;-81
2021/12/06 06:43:24;;;;;;;78.45;36.50;;;;;;;;;;6181110;23;20017;-81
2021/12/06 06:45:50;;;;;;;64.03;32.08;;;;;;;;;;6154247;23;20121;-81
2021/12/06 06:48:16;;;;;;;71.28;33.30;;;;;;;;;;6180855;23;20092;-81
2021/12/06 06:50:42;;;;;;;75.13;35.33;;;;;;;;;;6154055;23;20501;-80
2021/12/06 06:53:08;;;;;;;72.28;33.45;;;;;;;;;;6154453;23;20055;-81
2021/12/06 06:55:34;;;;;;;74.75;33.38;;;;;;;;;;6180747;23;20406;-81
2021/12/06 06:58:00;;;;;;;74.90;33.90;;;;;;;;;;6129711;23;20099;-81
2021/12/06 07:00:29;;;;;;;75.00;34.08;;;;;;;;;;6153607;23;20017;-81
2021/12/06 07:02:55;;;;;;;69.93;32.33;;;;;;;;;;6154380;23;20443;-81
2021/12/06 07:05:22;;;;;;;76.22;36.03;;;;;;;;;;6154256;23;20024;-81
2021/12/06 07:07:48;;;;;;;73.60;34.72;;;;;;;;;;6180977;23;20015;-81
2021/12/06 07:10:14;;;;;;;72.70;35.53;;;;;;;;;;6153685;23;20013;-81
2021/12/06 07:12:46;;;;;;;82.28;37.00;;;;;;;;;;6154349;23;20265;-81
2021/12/06 07:15:14;;;;;;;82.28;36.88;;;;;;;;;;6153989;23;20418;-81
2021/12/06 07:17:40;;;;;;;81.68;35.92;;;;;;;;;;6180653;23;20012;-81
2021/12/06 07:20:07;;;;;;;87.15;36.00;;;;;;;;;;6153050;23;20350;-81
2021/12/06 07:22:33;;;;;;;80.85;36.42;;;;;;;;;;6154381;23;20071;-81
2021/12/06 07:24:59;;;;;;;82.60;37.40;;;;;;;;;;6154046;23;20017;-81
2021/12/06 07:27:25;;;;;;;84.18;36.45;;;;;;;;;;6153316;23;20016;-81
2021/12/06 07:29:51;;;;;;;76.68;35.20;;;;;;;;;;6129063;23;20017;-81
2021/12/06 07:32:17;;;;;;;76.45;35.08;;;;;;;;;;6153923;23;20009;-81
2021/12/06 07:34:43;;;;;;;76.03;34.03;;;;;;;;;;6129408;23;20017;-80
2021/12/06 07:37:09;;;;;;;71.45;32.33;;;;;;;;;;6153513;23;20484;-81
2021/12/06 07:39:35;;;;;;;78.75;36.13;;;;;;;;;;6152811;23;20401;-82
2021/12/06 07:42:01;;;;;;;72.55;31.98;;;;;;;;;;6152593;23;20017;-82
2021/12/06 07:44:27;;;;;;;72.65;33.85;;;;;;;;;;6152730;23;20021;-81
2021/12/06 07:46:53;;;;;;;74.75;33.58;;;;;;;;;;6129107;23;20020;-81
2021/12/06 07:49:21;;;;;;;71.35;33.15;;;;;;;;;;6128503;23;20451;-82
2021/12/06 07:51:47;;;;;;;70.45;30.48;;;;;;;;;;6153403;23;20491;-81
2021/12/06 07:54:13;;;;;;;74.63;34.10;;;;;;;;;;6153337;23;20451;-81
2021/12/06 07:56:40;;;;;;;73.18;31.83;;;;;;;;;;6153344;23;20024;-80
2021/12/06 07:59:06;;;;;;;67.50;31.63;;;;;;;;;;6179862;23;20020;-80
2021/12/06 08:01:32;;;;;;;65.78;31.52;;;;;;;;;;6179148;23;20013;-81
2021/12/06 08:04:00;;;;;;;74.45;32.78;;;;;;;;;;6128695;23;20017;-80
2021/12/06 08:06:26;;;;;;;87.45;34.60;;;;;;;;;;6152224;23;20096;-81
2021/12/06 08:08:53;;;;;;;76.25;32.72;;;;;;;;;;6153150;23;20013;-80
2021/12/06 08:11:21;;;;;;;78.55;35.00;;;;;;;;;;6153150;23;20009;-81
2021/12/06 08:13:50;;;;;;;79.97;35.05;;;;;;;;;;6153129;23;20009;-80
2021/12/06 08:16:18;;;;;;;80.20;34.17;;;;;;;;;;6179340;23;20382;-81
2021/12/06 08:18:45;;;;;;;74.00;36.22;;;;;;;;;;6153113;23;20446;-80
2021/12/06 08:21:12;;;;;;;73.55;33.83;;;;;;;;;;6152694;23;20026;-80
2021/12/06 08:23:38;;;;;;;74.20;33.97;;;;;;;;;;6152713;23;20048;-81
2021/12/06 08:26:05;;;;;;;79.68;33.83;;;;;;;;;;6151753;23;20289;-81
2021/12/06 08:28:34;;;;;;;70.18;31.40;;;;;;;;;;6152595;23;20437;-81
2021/12/06 08:31:00;;;;;;;70.65;31.63;;;;;;;;;;6152503;23;20047;-82
2021/12/06 08:33:26;;;;;;;70.10;32.58;;;;;;;;;;6153262;23;20009;-82
2021/12/06 08:35:52;;;;;;;67.72;32.75;;;;;;;;;;6127291;23;20319;-80
2021/12/06 08:38:19;;;;;;;59.92;29.52;;;;;;;;;;6152467;23;20024;-80
2021/12/06 08:40:46;;;;;;;62.60;29.55;;;;;;;;;;6179804;23;20071;-80
2021/12/06 08:43:16;;;;;;;68.13;30.88;;;;;;;;;;6153341;23;20339;-80
2021/12/06 08:45:44;;;;;;;61.63;28.23;;;;;;;;;;6152114;23;20013;-80
2021/12/06 08:48:10;;;;;;;59.17;27.50;;;;;;;;;;6153073;23;20375;-80
2021/12/06 08:50:36;;;;;;;57.08;27.40;;;;;;;;;;6128662;23;20494;-80
2021/12/06 08:53:02;;;;;;;54.50;26.77;;;;;;;;;;6128451;23;20040;-80
2021/12/06 08:55:29;;;;;;;54.95;27.65;;;;;;;;;;6178804;23;20078;-80
2021/12/06 08:57:55;;;;;;;56.03;28.42;;;;;;;;;;6152560;23;20009;-80
2021/12/06 09:00:23;;;;;;;51.85;26.20;;;;;;;;;;6179487;23;20284;-80
2021/12/06 09:02:49;;;;;;;53.50;27.02;;;;;;;;;;6151838;23;20009;-79
2021/12/06 09:05:15;;;;;;;54.55;25.67;;;;;;;;;;6151840;23;20146;-82
2021/12/06 09:07:41;;;;;;;51.17;25.13;;;;;;;;;;6180119;23;20117;-81
2021/12/06 09:10:10;;;;;;;56.08;27.52;;;;;;;;;;6182018;23;20048;-82
2021/12/06 09:12:36;;;;;;;46.25;22.05;;;;;;;;;;6153440;23;20017;-81
2021/12/06 09:15:06;;;;;;;41.15;22.92;;;;;;;;;;6152380;23;20024;-82
2021/12/06 09:17:32;;;;;;;42.80;23.08;;;;;;;;;;6151951;23;20540;-82
2021/12/06 09:19:58;;;;;;;40.80;20.85;;;;;;;;;;6128251;23;20063;-80
2021/12/06 09:22:25;;;;;;;41.22;22.60;;;;;;;;;;6152825;23;20052;-80
2021/12/06 09:24:51;;;;;;;43.90;22.80;;;;;;;;;;6127742;23;20096;-80
2021/12/06 09:27:18;;;;;;;43.17;24.10;;;;;;;;;;6153375;23;20064;-81
2021/12/06 09:29:44;;;;;;;45.10;23.38;;;;;;;;;;6154568;23;20013;-80
2021/12/06 09:32:11;;;;;;;46.25;23.60;;;;;;;;;;6154424;23;20467;-80
2021/12/06 09:34:39;;;;;;;46.70;25.15;;;;;;;;;;6154452;23;20022;-80
2021/12/06 09:37:06;;;;;;;46.00;23.17;;;;;;;;;;6130469;23;20013;-80
2021/12/06 09:39:32;;;;;;;40.47;21.75;;;;;;;;;;6130335;23;20584;-80
2021/12/06 09:41:59;;;;;;;46.65;23.48;;;;;;;;;;6154731;23;20017;-80
2021/12/06 09:44:25;;;;;;;46.05;24.10;;;;;;;;;;6154713;23;20020;-81
2021/12/06 09:46:52;;;;;;;44.15;23.30;;;;;;;;;;6154821;23;20347;-81
2021/12/06 09:49:19;;;;;;;42.92;23.00;;;;;;;;;;6154545;23;20013;-81
2021/12/06 09:51:51;;;;;;;37.95;20.58;;;;;;;;;;6154190;23;20025;-81
2021/12/06 09:54:17;;;;;;;45.65;25.20;;;;;;;;;;6154212;23;20040;-81
2021/12/06 09:56:44;;;;;;;40.08;21.70;;;;;;;;;;6154283;23;20179;-80
2021/12/06 09:59:11;;;;;;;43.03;22.67;;;;;;;;;;6151990;23;20019;-80
2021/12/06 10:01:40;;;;;;;43.20;22.48;;;;;;;;;;6180449;23;20384;-80
2021/12/06 10:04:09;;;;;;;39.70;21.67;;;;;;;;;;6129823;23;20013;-80
2021/12/06 10:06:35;;;;;;;39.33;22.33;;;;;;;;;;6154469;23;20368;-79
2021/12/06 10:09:01;;;;;;;39.38;21.52;;;;;;;;;;6154467;23;20125;-79
2021/12/06 10:11:27;;;;;;;39.33;20.80;;;;;;;;;;6154656;23;20017;-79
2021/12/06 10:13:55;;;;;;;45.70;21.92;;;;;;;;;;6130007;23;20088;-79
2021/12/06 10:16:21;;;;;;;41.55;21.63;;;;;;;;;;6154656;23;20371;-79
2021/12/06 10:18:47;;;;;;;44.53;23.63;;;;;;;;;;6154828;23;20017;-79
2021/12/06 10:21:14;;;;;;;41.50;20.63;;;;;;;;;;6154421;23;20029;-80
2021/12/06 10:23:42;;;;;;;44.28;22.38;;;;;;;;;;6130039;23;20020;-80
2021/12/06 10:26:09;;;;;;;40.55;22.58;;;;;;;;;;6154546;23;20063;-79
2021/12/06 10:28:36;;;;;;;40.42;21.92;;;;;;;;;;6154868;23;20013;-79
2021/12/06 10:31:03;;;;;;;41.17;22.05;;;;;;;;;;6181555;23;20021;-79
2021/12/06 10:33:31;;;;;;;37.97;22.17;;;;;;;;;;6154714;23;20516;-79
2021/12/06 10:35:58;;;;;;;42.33;23.80;;;;;;;;;;6154712;23;20083;-79
2021/12/06 10:38:38;;;;;;;44.58;23.73;;;;;;;;;;6129857;23;20254;-80
2021/12/06 10:41:06;;;;;;;46.83;23.98;;;;;;;;;;6181044;23;20051;-79
2021/12/06 10:43:32;;;;;;;45.88;25.10;;;;;;;;;;6154243;23;20017;-80
2021/12/06 10:45:59;;;;;;;47.88;25.63;;;;;;;;;;6156738;23;20032;-81
2021/12/06 10:48:26;;;;;;;48.15;25.27;;;;;;;;;;6157769;23;20013;-81
2021/12/06 10:50:52;;;;;;;53.05;27.58;;;;;;;;;;6153823;23;20017;-81
2021/12/06 10:53:42;;;;;;;55.70;29.17;;;;;;;;;;6179705;23;20017;-79
2021/12/06 10:56:15;;;;;;;60.45;30.50;;;;;;;;;;6154116;23;20052;-80
2021/12/06 10:58:42;;;;;;;58.30;29.87;;;;;;;;;;6129442;23;20017;-79
2021/12/06 11:01:08;;;;;;;59.95;30.10;;;;;;;;;;6154051;23;20021;-80
2021/12/06 11:03:45;;;;;;;57.60;27.92;;;;;;;;;;6129155;23;20028;-80
2021/12/06 11:06:32;;;;;;;52.60;28.08;;;;;;;;;;6179868;23;20445;-80
2021/12/06 11:09:03;;;;;;;48.53;24.75;;;;;;;;;;6129184;23;20020;-79
2021/12/06 11:11:31;;;;;;;46.83;25.08;;;;;;;;;;6180153;23;20017;-79
2021/12/06 11:14:03;;;;;;;42.72;23.45;;;;;;;;;;6153653;23;20347;-79
2021/12/06 11:16:30;;;;;;;42.33;23.95;;;;;;;;;;6153708;23;20013;-80
2021/12/06 11:19:01;;;;;;;40.05;22.90;;;;;;;;;;6129069;23;20021;-80
2021/12/06 11:21:27;;;;;;;47.10;23.58;;;;;;;;;;6153720;23;20347;-79
2021/12/06 11:23:59;;;;;;;40.85;22.23;;;;;;;;;;6180347;23;20254;-80
2021/12/06 11:26:25;;;;;;;45.72;22.65;;;;;;;;;;6178619;23;20021;-78
2021/12/06 11:28:51;;;;;;;43.15;24.05;;;;;;;;;;6178448;23;20012;-79
2021/12/06 11:31:18;;;;;;;42.40;21.70;;;;;;;;;;6153093;23;20439;-80
2021/12/06 11:33:44;;;;;;;45.83;23.33;;;;;;;;;;6180084;23;20028;-80
2021/12/06 11:36:30;;;;;;;38.42;22.38;;;;;;;;;;6128638;23;20335;-79
2021/12/06 11:39:04;;;;;;;42.15;21.17;;;;;;;;;;6180163;23;20063;-80
2021/12/06 11:41:30;;;;;;;35.15;20.33;;;;;;;;;;6153340;23;20075;-79
2021/12/06 11:43:58;;;;;;;36.85;19.00;;;;;;;;;;6152841;23;20024;-80
2021/12/06 11:46:28;;;;;;;35.42;19.40;;;;;;;;;;6128817;23;20549;-81
2021/12/06 11:48:54;;;;;;;35.00;19.65;;;;;;;;;;6152702;23;20013;-80
2021/12/06 11:51:20;;;;;;;35.35;18.85;;;;;;;;;;6153209;23;20039;-80
2021/12/06 11:53:47;;;;;;;32.67;18.02;;;;;;;;;;6153310;23;20019;-79
2021/12/06 11:56:18;;;;;;;34.55;19.75;;;;;;;;;;6153318;23;20075;-80
2021/12/06 11:58:48;;;;;;;37.35;20.10;;;;;;;;;;6154544;23;20021;-80
2021/12/06 12:01:14;;;;;;;34.50;20.10;;;;;;;;;;6155330;23;20028;-80
2021/12/06 12:03:41;;;;;;;35.85;20.05;;;;;;;;;;6180819;23;20366;-81
2021/12/06 12:06:36;;;;;;;40.78;22.63;;;;;;;;;;6128819;23;20518;-78
2021/12/06 12:09:12;;;;;;;69.65;36.95;;;;;;;;;;6139812;23;20094;-79
2021/12/06 12:12:02;;;;;;;38.60;20.92;;;;;;;;;;6153141;23;20020;-79
2021/12/06 12:14:55;;;;;;;40.30;21.00;;;;;;;;;;6152336;23;20021;-79
2021/12/06 12:17:34;;;;;;;38.97;22.02;;;;;;;;;;6176115;23;20036;-79
2021/12/06 12:20:01;;;;;;;37.33;21.45;;;;;;;;;;6179637;23;20013;-78
2021/12/06 12:22:28;;;;;;;37.40;22.35;;;;;;;;;;6180087;23;20023;-78
2021/12/06 12:24:59;;;;;;;55.75;29.33;;;;;;;;;;6153299;23;20362;-79
2021/12/06 12:27:33;;;;;;;45.88;23.00;;;;;;;;;;6179735;23;20091;-79
2021/12/06 12:30:01;;;;;;;39.22;21.40;;;;;;;;;;6153376;23;20019;-78
2021/12/06 12:32:29;;;;;;;49.90;24.50;;;;;;;;;;6153285;23;20512;-80
2021/12/06 12:34:56;;;;;;;39.55;21.23;;;;;;;;;;6128931;23;20017;-80
2021/12/06 12:37:23;;;;;;;89.72;46.55;;;;;;;;;;6128780;23;20021;-80
2021/12/06 12:40:04;;;;;;;40.70;22.50;;;;;;;;;;6179707;23;20020;-80
2021/12/06 12:42:30;;;;;;;37.67;21.63;;;;;;;;;;6128732;23;20067;-80
2021/12/06 12:44:59;;;;;;;37.63;21.35;;;;;;;;;;6153588;23;20055;-80
2021/12/06 12:47:26;;;;;;;38.90;21.23;;;;;;;;;;6152905;23;20103;-80
2021/12/06 12:49:54;;;;;;;37.35;20.58;;;;;;;;;;6153315;23;20013;-79
2021/12/06 12:52:38;;;;;;;41.13;21.98;;;;;;;;;;6153041;23;20017;-79
2021/12/06 12:55:23;;;;;;;37.28;22.23;;;;;;;;;;6153057;23;20013;-79
2021/12/06 12:57:49;;;;;;;;;;;;;;;;;;6153800;23;20186;-79
2021/12/06 13:00:24;;;;;;;37.97;19.85;;;;;;;;;;6152866;23;19912;-79
2021/12/06 13:02:50;;;;;;;43.38;22.80;;;;;;;;;;6152882;23;20358;-80
2021/12/06 13:05:18;;;;;;;40.03;20.95;;;;;;;;;;6153165;23;20044;-80
2021/12/06 13:07:50;;;;;;;41.35;20.65;;;;;;;;;;6152978;23;20023;-80
2021/12/06 13:10:22;;;;;;;34.72;20.15;;;;;;;;;;6153352;23;20438;-79
2021/12/06 13:13:18;;;;;;;42.60;22.48;;;;;;;;;;6128529;23;20047;-80
2021/12/06 13:15:55;;;;;;;40.20;20.67;;;;;;;;;;6148078;23;20071;-80
2021/12/06 13:21:38;;;;;;;48.22;24.73;;;;;;;;;;6179515;23;20024;-80
2021/12/06 13:24:05;;;;;;;44.85;24.10;;;;;;;;;;6128609;23;20090;-80
2021/12/06 13:26:35;;;;;;;45.88;24.92;;;;;;;;;;6152757;23;20023;-80
2021/12/06 13:29:07;;;;;;;47.17;24.30;;;;;;;;;;6153048;23;20103;-80
2021/12/06 13:31:33;;;;;;;51.97;27.75;;;;;;;;;;6128403;23;20702;-80
2021/12/06 13:33:59;;;;;;;49.55;27.42;;;;;;;;;;6128441;23;20009;-80
2021/12/06 13:36:41;;;;;;;53.22;27.45;;;;;;;;;;6128242;23;20013;-79
2021/12/06 13:39:26;;;;;;;54.40;28.50;;;;;;;;;;6152949;23;20021;-79
2021/12/06 13:41:52;;;;;;;;;;;;;;;;;;6153472;23;20080;-79
2021/12/06 13:44:22;;;;;;;55.67;30.17;;;;;;;;;;6179177;23;19916;-80
2021/12/06 13:46:51;;;;;;;57.10;30.55;;;;;;;;;;6152751;23;20087;-79
2021/12/06 13:49:19;;;;;;;57.08;29.60;;;;;;;;;;6152282;23;20047;-80
2021/12/06 13:51:58;;;;;;;54.55;28.00;;;;;;;;;;6152860;23;20024;-78
2021/12/06 13:54:31;;;;;;;60.25;31.38;;;;;;;;;;6127866;23;20052;-79
2021/12/06 13:56:58;;;;;;;62.45;30.38;;;;;;;;;;6153163;23;20446;-78
2021/12/06 13:59:26;;;;;;;58.45;30.00;;;;;;;;;;6128237;23;20053;-79
2021/12/06 14:01:55;;;;;;;53.42;28.75;;;;;;;;;;6152369;23;20013;-80
2021/12/06 14:04:22;;;;;;;57.25;31.58;;;;;;;;;;6127713;23;20027;-79
2021/12/06 14:06:53;;;;;;;53.40;30.10;;;;;;;;;;6179136;23;20017;-79
2021/12/06 14:09:25;;;;;;;55.75;31.23;;;;;;;;;;6179482;23;20021;-80
2021/12/06 14:11:56;;;;;;;67.70;33.17;;;;;;;;;;6177152;23;20016;-80
2021/12/06 14:14:23;;;;;;;55.38;31.33;;;;;;;;;;6180713;23;20017;-79
2021/12/06 14:16:49;;;;;;;62.40;34.00;;;;;;;;;;6180942;23;20060;-80
2021/12/06 14:19:15;;;;;;;58.17;32.78;;;;;;;;;;6129652;23;20021;-80
2021/12/06 14:21:45;;;;;;;71.93;36.38;;;;;;;;;;6153605;23;20277;-81
2021/12/06 14:24:11;;;;;;;70.05;37.25;;;;;;;;;;6129289;23;20017;-80
2021/12/06 14:26:43;;;;;;;64.65;33.95;;;;;;;;;;6153815;23;20017;-80
2021/12/06 14:29:13;;;;;;;66.90;36.22;;;;;;;;;;6128808;23;20017;-81
2021/12/06 14:31:40;;;;;;;64.13;34.60;;;;;;;;;;6180596;23;20257;-81
2021/12/06 14:34:06;;;;;;;70.90;36.00;;;;;;;;;;6180966;23;20485;-81
2021/12/06 14:36:32;;;;;;;69.25;37.75;;;;;;;;;;6180779;23;20101;-82
2021/12/06 14:39:06;;;;;;;69.35;36.53;;;;;;;;;;6180819;23;20068;-81